createdAt,value
2018-12-04T00:00:39.869Z,9.69
2018-12-04T00:03:09.782Z,9.70
2018-12-04T00:05:39.741Z,9.70
2018-12-04T00:08:09.651Z,9.64
2018-12-04T00:10:39.806Z,9.68
2018-12-04T00:13:09.765Z,9.72
2018-12-04T00:15:39.732Z,9.63
2018-12-04T00:18:09.662Z,9.67
2018-12-04T00:20:39.593Z,9.64
2018-12-04T00:23:09.512Z,9.57
2018-12-04T00:25:39.494Z,9.64
2018-12-04T00:28:09.445Z,9.62
2018-12-04T00:30:39.447Z,9.69
2018-12-04T00:33:09.501Z,9.69
2018-12-04T00:35:39.437Z,9.71
2018-12-04T00:38:09.443Z,9.65
2018-12-04T00:40:39.415Z,9.65
2018-12-04T00:43:09.350Z,9.68
2018-12-04T00:45:39.429Z,9.76
2018-12-04T00:48:09.347Z,9.74
2018-12-04T00:50:39.294Z,9.79
2018-12-04T00:53:10.883Z,9.94
2018-12-04T00:55:41.640Z,9.85
2018-12-04T00:58:11.788Z,9.88
2018-12-04T01:00:41.757Z,9.92
2018-12-04T01:03:11.698Z,9.99
2018-12-04T01:05:41.682Z,10.02
2018-12-04T01:08:11.603Z,9.95
2018-12-04T01:10:41.561Z,10.01
2018-12-04T01:13:11.486Z,10.00
2018-12-04T01:15:41.440Z,9.98
2018-12-04T01:18:11.389Z,10.01
2018-12-04T01:20:41.325Z,10.03
2018-12-04T01:23:11.243Z,10.00
2018-12-04T01:25:41.193Z,10.01
2018-12-04T01:28:11.108Z,9.99
2018-12-04T01:30:41.066Z,9.98
2018-12-04T01:33:10.989Z,10.01
2018-12-04T01:35:41.051Z,9.95
2018-12-04T01:38:10.949Z,9.97
2018-12-04T01:40:40.908Z,9.94
2018-12-04T01:43:10.918Z,9.93
2018-12-04T01:45:40.989Z,9.98
2018-12-04T01:48:10.915Z,9.93
2018-12-04T01:50:42.171Z,9.96
2018-12-04T01:53:12.194Z,9.99
2018-12-04T01:55:42.168Z,9.87
2018-12-04T01:58:12.110Z,9.86
2018-12-04T02:00:42.055Z,9.86
2018-12-04T02:03:11.968Z,9.82
2018-12-04T02:05:42.164Z,9.80
2018-12-04T02:08:12.148Z,9.85
2018-12-04T02:10:42.107Z,9.89
2018-12-04T02:13:12.046Z,9.92
2018-12-04T02:15:42.013Z,9.85
2018-12-04T02:18:11.916Z,9.81
2018-12-04T02:20:41.894Z,9.84
2018-12-04T02:23:11.815Z,9.81
2018-12-04T02:25:41.767Z,9.81
2018-12-04T02:28:11.677Z,9.80
2018-12-04T02:30:41.614Z,9.85
2018-12-04T02:33:11.540Z,9.85
2018-12-04T02:35:41.527Z,9.91
2018-12-04T02:38:11.473Z,9.86
2018-12-04T02:40:41.424Z,9.84
2018-12-04T02:43:11.365Z,9.84
2018-12-04T02:45:41.305Z,9.88
2018-12-04T02:48:11.217Z,9.87
2018-12-04T02:50:41.167Z,9.84
2018-12-04T02:53:11.111Z,9.82
2018-12-04T02:55:41.080Z,9.86
2018-12-04T02:58:11.098Z,9.82
2018-12-04T03:00:41.056Z,9.82
2018-12-04T03:03:10.971Z,9.73
2018-12-04T03:05:40.922Z,9.72
2018-12-04T03:08:10.868Z,9.68
2018-12-04T03:10:40.803Z,9.69
2018-12-04T03:13:10.737Z,9.62
2018-12-04T03:15:40.757Z,9.64
2018-12-04T03:18:10.673Z,9.64
2018-12-04T03:20:40.628Z,9.67
2018-12-04T03:23:10.518Z,9.56
2018-12-04T03:25:40.511Z,9.51
2018-12-04T03:28:10.442Z,9.49
2018-12-04T03:30:40.442Z,9.52
2018-12-04T03:33:10.462Z,9.45
2018-12-04T03:35:40.385Z,9.43
2018-12-04T03:38:10.380Z,9.41
2018-12-04T03:40:40.357Z,9.35
2018-12-04T03:43:10.293Z,9.37
2018-12-04T03:45:40.232Z,9.27
2018-12-04T03:48:10.299Z,9.25
2018-12-04T03:50:40.223Z,9.18
2018-12-04T03:53:10.182Z,9.21
2018-12-04T03:55:40.108Z,9.16
2018-12-04T03:58:10.104Z,9.16
2018-12-04T04:00:40.144Z,9.14
2018-12-04T04:03:10.069Z,9.10
2018-12-04T04:05:40.034Z,9.01
2018-12-04T04:08:09.933Z,9.23
2018-12-04T04:10:39.907Z,9.03
2018-12-04T04:13:09.842Z,8.96
2018-12-04T04:15:39.961Z,8.89
2018-12-04T04:18:09.920Z,8.85
2018-12-04T04:20:39.880Z,8.84
2018-12-04T04:23:09.926Z,8.85
2018-12-04T04:25:39.879Z,8.89
2018-12-04T04:28:09.870Z,8.87
2018-12-04T04:30:39.819Z,8.87
2018-12-04T04:33:09.760Z,8.86
2018-12-04T04:35:39.681Z,8.91
2018-12-04T04:38:09.589Z,8.90
2018-12-04T04:40:39.533Z,8.94
2018-12-04T04:43:09.451Z,9.07
2018-12-04T04:45:39.385Z,9.06
2018-12-04T04:48:09.310Z,9.12
2018-12-04T04:50:39.236Z,9.15
2018-12-04T04:53:09.161Z,9.15
2018-12-04T04:55:39.203Z,9.06
2018-12-04T04:58:09.211Z,8.96
2018-12-04T05:00:39.148Z,8.90
2018-12-04T05:03:09.405Z,8.89
2018-12-04T05:05:41.604Z,8.88
2018-12-04T05:08:11.501Z,8.88
2018-12-04T05:10:41.427Z,8.90
2018-12-04T05:13:11.355Z,8.90
2018-12-04T05:15:41.377Z,8.89
2018-12-04T05:18:11.336Z,9.01
2018-12-04T05:20:41.372Z,8.90
2018-12-04T05:23:11.287Z,8.94
2018-12-04T05:25:41.232Z,8.91
2018-12-04T05:28:11.398Z,8.83
2018-12-04T05:30:41.339Z,8.82
2018-12-04T05:33:11.230Z,8.84
2018-12-04T05:35:41.160Z,8.92
2018-12-04T05:38:11.069Z,8.92
2018-12-04T05:40:41.030Z,8.91
2018-12-04T05:43:11.287Z,8.85
2018-12-04T05:46:20.449Z,8.85
2018-12-04T05:48:50.173Z,8.76
2018-12-04T05:51:19.887Z,8.69
2018-12-04T05:53:49.557Z,8.70
2018-12-04T05:56:19.436Z,8.66
2018-12-04T05:58:49.184Z,8.66
2018-12-04T06:01:19.366Z,8.69
2018-12-04T06:03:49.124Z,8.81
2018-12-04T06:06:18.852Z,8.72
2018-12-04T06:08:48.652Z,8.70
2018-12-04T06:11:18.513Z,8.72
2018-12-04T06:13:48.284Z,8.70
2018-12-04T06:16:17.962Z,8.74
2018-12-04T06:18:47.845Z,8.67
2018-12-04T06:21:17.535Z,8.67
2018-12-04T06:23:47.469Z,8.65
2018-12-04T06:26:17.764Z,8.62
2018-12-04T06:28:47.576Z,8.65
2018-12-04T06:31:17.557Z,8.62
2018-12-04T06:33:47.358Z,8.64
2018-12-04T06:36:17.172Z,8.67
2018-12-04T06:38:47.078Z,8.64
2018-12-04T06:41:16.841Z,8.65
2018-12-04T06:43:46.693Z,8.61
2018-12-04T06:46:16.465Z,8.61
2018-12-04T06:48:46.482Z,8.64
2018-12-04T06:51:16.161Z,8.60
2018-12-04T06:53:45.873Z,8.62
2018-12-04T06:56:15.725Z,8.69
2018-12-04T06:58:46.015Z,8.69
2018-12-04T07:01:15.908Z,8.65
2018-12-04T07:03:45.655Z,8.63
2018-12-04T07:06:15.588Z,8.65
2018-12-04T07:08:45.521Z,8.68
2018-12-04T07:11:16.625Z,8.65
2018-12-04T07:13:47.633Z,8.67
2018-12-04T07:16:17.604Z,8.69
2018-12-04T07:18:47.892Z,8.66
2018-12-04T07:21:18.079Z,8.62
2018-12-04T07:23:49.581Z,8.64
2018-12-04T07:26:19.242Z,8.64
2018-12-04T07:28:49.033Z,8.66
2018-12-04T07:31:19.140Z,8.69
2018-12-04T07:33:49.188Z,8.72
2018-12-04T07:36:19.961Z,8.77
2018-12-04T07:38:49.801Z,8.78
2018-12-04T07:41:19.639Z,8.71
2018-12-04T07:43:49.741Z,8.66
2018-12-04T07:46:19.464Z,8.68
2018-12-04T07:48:49.241Z,8.74
2018-12-04T07:51:19.220Z,8.71
2018-12-04T07:53:48.984Z,8.64
2018-12-04T07:56:19.507Z,8.68
2018-12-04T07:58:49.340Z,8.60
2018-12-04T08:01:19.235Z,8.59
2018-12-04T08:03:49.104Z,8.55
2018-12-04T08:06:18.849Z,8.56
2018-12-04T08:08:48.840Z,8.54
2018-12-04T08:11:18.738Z,8.50
2018-12-04T08:13:48.643Z,8.51
2018-12-04T08:16:18.489Z,8.48
2018-12-04T08:18:48.211Z,8.55
2018-12-04T08:21:17.948Z,8.58
2018-12-04T08:23:47.675Z,8.45
2018-12-04T08:26:17.589Z,8.48
2018-12-04T08:28:47.353Z,8.47
2018-12-04T08:31:17.341Z,8.46
2018-12-04T08:33:47.160Z,8.41
2018-12-04T08:36:17.051Z,8.39
2018-12-04T08:41:35.753Z,8.51
2018-12-04T08:44:05.659Z,8.57
2018-12-04T08:46:35.425Z,8.65
2018-12-04T08:49:05.529Z,8.79
2018-12-04T08:51:35.346Z,8.75
2018-12-04T08:54:05.718Z,8.77
2018-12-04T08:56:35.839Z,8.75
2018-12-04T08:59:05.851Z,8.72
2018-12-04T09:01:35.629Z,8.74
2018-12-04T09:04:05.748Z,8.83
2018-12-04T09:06:36.427Z,8.93
2018-12-04T09:09:11.343Z,8.98
2018-12-04T09:11:41.021Z,8.96
2018-12-04T09:14:10.921Z,9.01
2018-12-04T09:16:40.719Z,8.90
2018-12-04T09:19:11.096Z,8.95
2018-12-04T09:21:41.199Z,8.98
2018-12-04T09:24:11.002Z,9.00
2018-12-04T09:26:40.911Z,9.04
2018-12-04T09:29:10.733Z,9.04
2018-12-04T09:31:40.553Z,9.30
2018-12-04T09:34:10.286Z,9.32
2018-12-04T09:36:40.092Z,9.15
2018-12-04T09:39:09.975Z,9.16
2018-12-04T09:41:39.837Z,9.27
2018-12-04T09:44:09.501Z,9.13
2018-12-04T09:46:39.228Z,9.02
2018-12-04T09:49:09.199Z,9.03
2018-12-04T09:51:38.954Z,9.04
2018-12-04T09:54:08.779Z,9.08
2018-12-04T09:56:38.621Z,9.16
2018-12-04T09:59:08.562Z,9.15
2018-12-04T10:01:38.413Z,9.05
2018-12-04T10:04:08.353Z,9.04
2018-12-04T10:06:38.262Z,9.11
2018-12-04T10:09:09.666Z,9.18
2018-12-04T10:11:39.868Z,9.21
2018-12-04T10:14:09.705Z,9.26
2018-12-04T10:16:39.602Z,9.31
2018-12-04T10:19:09.315Z,9.43
2018-12-04T10:21:39.579Z,9.52
2018-12-04T10:24:09.595Z,9.50
2018-12-04T10:26:40.230Z,9.60
2018-12-04T10:29:10.166Z,9.75
2018-12-04T10:31:39.951Z,9.91
2018-12-04T10:34:09.748Z,10.03
2018-12-04T10:36:39.714Z,10.12
2018-12-04T10:39:09.846Z,10.19
2018-12-04T10:41:39.849Z,10.21
2018-12-04T10:44:09.660Z,10.20
2018-12-04T10:46:39.549Z,10.30
2018-12-04T10:49:09.265Z,10.33
2018-12-04T10:51:39.182Z,10.60
2018-12-04T10:54:09.552Z,10.69
2018-12-04T10:56:39.337Z,10.76
2018-12-04T10:59:09.203Z,10.76
2018-12-04T11:01:44.167Z,10.76
2018-12-04T11:04:14.096Z,10.86
2018-12-04T11:06:44.452Z,10.78
2018-12-04T11:09:14.296Z,10.81
2018-12-04T11:11:44.700Z,10.63
2018-12-04T11:14:14.462Z,10.55
2018-12-04T11:16:44.158Z,10.48
2018-12-04T11:19:13.904Z,10.46
2018-12-04T11:21:43.749Z,10.47
2018-12-04T11:24:13.724Z,10.33
2018-12-04T11:26:43.558Z,10.26
2018-12-04T11:29:13.451Z,10.25
2018-12-04T11:31:43.643Z,10.31
2018-12-04T11:34:13.662Z,10.33
2018-12-04T11:36:43.498Z,10.34
2018-12-04T11:39:13.424Z,10.43
2018-12-04T11:41:43.459Z,10.74
2018-12-04T11:44:13.265Z,10.81
2018-12-04T11:46:43.076Z,10.93
2018-12-04T11:49:13.032Z,11.08
2018-12-04T11:51:42.911Z,11.16
2018-12-04T11:54:12.820Z,11.19
2018-12-04T11:56:42.613Z,11.08
2018-12-04T11:59:13.296Z,11.09
2018-12-04T12:01:43.710Z,10.85
2018-12-04T12:04:13.506Z,10.76
2018-12-04T12:06:43.304Z,10.51
2018-12-04T12:09:13.034Z,10.38
2018-12-04T12:11:42.837Z,10.38
2018-12-04T12:14:12.535Z,10.49
2018-12-04T12:16:42.231Z,10.52
2018-12-04T12:19:12.009Z,10.45
2018-12-04T12:21:41.796Z,10.67
2018-12-04T12:24:12.283Z,11.18
2018-12-04T12:26:41.974Z,11.31
2018-12-04T12:29:11.813Z,11.19
2018-12-04T12:31:41.536Z,10.81
2018-12-04T12:34:11.240Z,10.53
2018-12-04T12:36:41.490Z,10.48
2018-12-04T12:39:11.252Z,10.55
2018-12-04T12:41:41.259Z,10.47
2018-12-04T12:44:11.116Z,10.36
2018-12-04T12:46:40.993Z,10.30
2018-12-04T12:49:10.856Z,10.21
2018-12-04T12:51:40.727Z,10.13
2018-12-04T12:54:10.456Z,10.03
2018-12-04T12:56:40.379Z,10.03
2018-12-04T12:59:10.042Z,9.81
2018-12-04T13:01:39.805Z,9.56
2018-12-04T13:04:09.621Z,9.50
2018-12-04T13:06:39.469Z,9.50
2018-12-04T13:09:10.075Z,9.55
2018-12-04T13:11:40.865Z,9.71
2018-12-04T13:14:10.606Z,9.93
2018-12-04T13:16:40.536Z,10.03
2018-12-04T13:19:10.427Z,9.97
2018-12-04T13:21:41.077Z,10.25
2018-12-04T13:24:11.145Z,10.23
2018-12-04T13:26:41.260Z,10.30
2018-12-04T13:29:11.109Z,10.36
2018-12-04T13:31:40.794Z,10.66
2018-12-04T13:34:10.651Z,10.91
2018-12-04T13:36:40.780Z,10.85
2018-12-04T13:39:12.157Z,10.45
2018-12-04T13:41:42.075Z,10.28
2018-12-04T13:44:12.247Z,10.04
2018-12-04T13:46:42.028Z,10.05
2018-12-04T13:49:12.019Z,10.18
2018-12-04T13:51:42.009Z,10.28
2018-12-04T13:54:11.727Z,10.05
2018-12-04T13:56:41.774Z,9.83
2018-12-04T13:59:11.526Z,9.79
2018-12-04T14:01:41.541Z,9.79
2018-12-04T14:04:11.483Z,9.89
2018-12-04T14:06:41.269Z,9.84
2018-12-04T14:09:11.074Z,9.80
2018-12-04T14:11:41.005Z,9.87
2018-12-04T14:14:10.689Z,9.84
2018-12-04T14:16:40.545Z,9.80
2018-12-04T14:19:10.317Z,9.71
2018-12-04T14:21:40.220Z,9.78
2018-12-04T14:24:09.967Z,9.65
2018-12-04T14:26:39.787Z,9.70
2018-12-04T14:29:09.654Z,9.67
2018-12-04T14:31:39.554Z,9.70
2018-12-04T14:34:09.529Z,9.59
2018-12-04T14:36:39.252Z,9.64
2018-12-04T14:39:10.884Z,9.62
2018-12-04T14:41:40.946Z,9.68
2018-12-04T14:44:10.748Z,9.58
2018-12-04T14:46:40.469Z,9.43
2018-12-04T14:49:10.387Z,9.47
2018-12-04T14:51:40.220Z,9.36
2018-12-04T14:54:10.123Z,9.31
2018-12-04T14:56:39.989Z,9.25
2018-12-04T14:59:09.684Z,9.21
2018-12-04T15:01:39.402Z,9.22
2018-12-04T15:04:09.322Z,9.22
2018-12-04T15:06:39.390Z,9.25
2018-12-04T15:09:09.587Z,9.24
2018-12-04T15:11:39.313Z,9.38
2018-12-04T15:14:09.386Z,9.27
2018-12-04T15:16:39.718Z,9.16
2018-12-04T15:19:09.459Z,9.11
2018-12-04T15:21:39.633Z,9.00
2018-12-04T15:24:09.304Z,8.89
2018-12-04T15:26:39.391Z,8.96
2018-12-04T15:29:10.147Z,9.00
2018-12-04T15:31:39.989Z,9.07
2018-12-04T15:34:10.818Z,8.89
2018-12-04T15:36:40.646Z,8.77
2018-12-04T15:39:10.735Z,8.70
2018-12-04T15:41:40.979Z,8.64
2018-12-04T15:44:10.762Z,8.57
2018-12-04T15:46:40.601Z,8.53
2018-12-04T15:49:11.295Z,8.58
2018-12-04T15:51:41.577Z,8.52
2018-12-04T15:57:00.261Z,8.66
2018-12-04T15:59:29.942Z,8.71
2018-12-04T16:01:59.710Z,8.68
2018-12-04T16:04:29.374Z,8.49
2018-12-04T16:09:47.008Z,8.42
2018-12-04T16:12:16.785Z,8.37
2018-12-04T16:14:46.521Z,8.30
2018-12-04T16:17:16.258Z,8.35
2018-12-04T16:19:46.092Z,8.46
2018-12-04T16:22:16.108Z,8.50
2018-12-04T16:24:46.998Z,8.44
2018-12-04T16:27:16.812Z,8.50
2018-12-04T16:29:46.575Z,8.48
2018-12-04T16:32:16.566Z,8.45
2018-12-04T16:34:46.254Z,8.46
2018-12-04T16:37:16.145Z,8.40
2018-12-04T16:39:47.020Z,8.37
2018-12-04T16:42:16.770Z,8.37
2018-12-04T16:44:46.442Z,8.34
2018-12-04T16:47:16.510Z,8.34
2018-12-04T16:49:46.309Z,8.30
2018-12-04T16:52:16.144Z,8.28
2018-12-04T16:54:45.980Z,8.27
2018-12-04T16:57:15.734Z,8.25
2018-12-04T16:59:45.480Z,8.19
2018-12-04T17:02:15.564Z,8.18
2018-12-04T17:04:45.326Z,8.14
2018-12-04T17:07:15.036Z,8.18
2018-12-04T17:09:45.357Z,8.23
2018-12-04T17:12:15.261Z,8.23
2018-12-04T17:14:45.034Z,8.25
2018-12-04T17:17:14.909Z,8.24
2018-12-04T17:19:44.868Z,8.20
2018-12-04T17:22:14.731Z,8.24
2018-12-04T17:24:44.557Z,8.16
2018-12-04T17:27:14.476Z,8.05
2018-12-04T17:29:44.420Z,7.83
2018-12-04T17:32:14.809Z,7.79
2018-12-04T17:34:45.539Z,7.77
2018-12-04T17:37:15.612Z,7.54
2018-12-04T17:39:45.482Z,7.43
2018-12-04T17:42:16.262Z,7.38
2018-12-04T17:44:46.194Z,7.41
2018-12-04T17:47:16.268Z,7.50
2018-12-04T17:49:46.700Z,7.60
2018-12-04T17:52:16.636Z,7.61
2018-12-04T17:54:46.619Z,7.56
2018-12-04T17:57:16.602Z,7.52
2018-12-04T17:59:46.769Z,7.49
2018-12-04T18:02:16.755Z,7.44
2018-12-04T18:04:46.512Z,7.33
2018-12-04T18:07:16.932Z,7.25
2018-12-04T18:09:46.777Z,7.15
2018-12-04T18:12:16.630Z,7.00
2018-12-04T18:14:47.316Z,6.90
2018-12-04T18:17:17.470Z,6.87
2018-12-04T18:19:47.249Z,6.88
2018-12-04T18:22:17.689Z,6.86
2018-12-04T18:24:47.491Z,6.75
2018-12-04T18:27:18.213Z,6.71
2018-12-04T18:29:48.078Z,6.76
2018-12-04T18:32:18.429Z,6.76
2018-12-04T18:34:49.298Z,6.83
2018-12-04T18:37:19.403Z,6.70
2018-12-04T18:39:49.261Z,6.77
2018-12-04T18:42:19.308Z,6.69
2018-12-04T18:44:49.239Z,6.62
2018-12-04T18:47:19.581Z,6.39
2018-12-04T18:49:49.542Z,6.30
2018-12-04T18:52:19.995Z,6.20
2018-12-04T18:54:49.881Z,6.23
2018-12-04T18:57:19.742Z,6.29
2018-12-04T18:59:49.634Z,6.31
2018-12-04T19:02:19.669Z,6.36
2018-12-04T19:04:50.695Z,6.41
2018-12-04T19:07:20.562Z,6.48
2018-12-04T19:09:50.558Z,6.53
2018-12-04T19:12:20.325Z,6.56
2018-12-04T19:14:50.830Z,6.56
2018-12-04T19:17:20.723Z,6.57
2018-12-04T19:19:50.652Z,6.61
2018-12-04T19:22:20.646Z,6.60
2018-12-04T19:24:50.441Z,6.52
2018-12-04T19:27:20.908Z,6.36
2018-12-04T19:29:50.961Z,6.21
2018-12-04T19:32:20.716Z,6.23
2018-12-04T19:34:50.725Z,6.23
2018-12-04T19:37:20.627Z,6.18
2018-12-04T19:39:50.418Z,5.99
2018-12-04T19:42:20.140Z,5.98
2018-12-04T19:44:50.121Z,5.93
2018-12-04T19:47:20.020Z,5.88
2018-12-04T19:49:49.945Z,5.82
2018-12-04T19:52:19.629Z,5.88
2018-12-04T19:54:49.467Z,5.90
2018-12-04T19:57:19.216Z,5.91
2018-12-04T19:59:48.900Z,5.83
2018-12-04T20:02:19.480Z,5.86
2018-12-04T20:04:49.424Z,5.71
2018-12-04T20:07:19.446Z,5.64
2018-12-04T20:09:49.371Z,5.53
2018-12-04T20:12:19.181Z,5.53
2018-12-04T20:14:49.569Z,5.61
2018-12-04T20:20:09.342Z,5.63
2018-12-04T20:22:39.411Z,5.52
2018-12-04T20:25:09.895Z,5.40
2018-12-04T20:27:39.858Z,5.45
2018-12-04T20:30:10.070Z,5.49
2018-12-04T20:32:40.005Z,5.52
2018-12-04T20:35:09.493Z,5.60
2018-12-04T20:37:39.246Z,5.60
2018-12-04T20:40:09.224Z,5.46
2018-12-04T20:42:39.935Z,5.43
2018-12-04T20:45:09.875Z,5.24
2018-12-04T20:47:39.567Z,5.15
2018-12-04T20:50:09.564Z,5.11
2018-12-04T20:52:39.363Z,5.11
2018-12-04T20:55:09.307Z,5.03
2018-12-04T20:57:39.960Z,5.04
2018-12-04T21:00:12.764Z,5.12
2018-12-04T21:02:42.998Z,5.22
2018-12-04T21:05:13.147Z,5.31
2018-12-04T21:07:43.067Z,5.40
2018-12-04T21:10:13.146Z,5.48
2018-12-04T21:12:42.872Z,5.50
2018-12-04T21:15:12.571Z,5.51
2018-12-04T21:17:42.614Z,5.48
2018-12-04T21:20:12.544Z,5.47
2018-12-04T21:22:42.302Z,5.51
2018-12-04T21:25:11.960Z,5.53
2018-12-04T21:27:46.862Z,5.58
2018-12-04T21:30:21.626Z,5.59
2018-12-04T21:32:56.741Z,5.58
2018-12-04T21:35:31.705Z,5.55
2018-12-04T21:38:06.674Z,5.56
2018-12-04T21:40:41.508Z,5.59
2018-12-04T21:43:16.370Z,5.65
2018-12-04T21:45:51.303Z,5.63
2018-12-04T21:48:23.048Z,5.65
2018-12-04T21:50:52.819Z,5.68
2018-12-04T21:53:22.672Z,5.64
2018-12-04T21:55:52.487Z,5.62
2018-12-04T21:58:22.894Z,5.59
2018-12-04T22:00:52.592Z,5.55
2018-12-04T22:03:22.377Z,5.49
2018-12-04T22:05:52.379Z,5.44
2018-12-04T22:08:22.322Z,5.41
2018-12-04T22:10:52.037Z,5.39
2018-12-04T22:13:21.884Z,5.46
2018-12-04T22:15:51.612Z,5.50
2018-12-04T22:18:21.272Z,5.54
2018-12-04T22:20:51.123Z,5.58
2018-12-04T22:23:20.882Z,5.62
2018-12-04T22:25:50.738Z,5.64
2018-12-04T22:28:20.625Z,5.67
2018-12-04T22:30:51.037Z,5.71
2018-12-04T22:33:20.699Z,5.70
2018-12-04T22:35:50.355Z,5.67
2018-12-04T22:38:20.244Z,5.66
2018-12-04T22:40:50.000Z,5.64
2018-12-04T22:43:19.705Z,5.66
2018-12-04T22:45:49.528Z,5.66
2018-12-04T22:48:19.422Z,5.66
2018-12-04T22:50:49.164Z,5.65
2018-12-04T22:53:18.841Z,5.65
2018-12-04T22:55:48.599Z,5.69
2018-12-04T22:58:18.383Z,5.70
2018-12-04T23:00:50.548Z,5.74
2018-12-04T23:03:20.385Z,5.69
2018-12-04T23:05:50.299Z,5.60
2018-12-04T23:08:20.075Z,5.61
2018-12-04T23:10:49.982Z,5.67
2018-12-04T23:13:19.925Z,5.69
2018-12-04T23:15:49.748Z,5.68
2018-12-04T23:18:20.137Z,5.71
2018-12-04T23:20:50.213Z,5.68
2018-12-04T23:23:20.937Z,5.70
2018-12-04T23:25:51.213Z,5.69
2018-12-04T23:28:20.956Z,5.70
2018-12-04T23:30:50.708Z,5.72
2018-12-04T23:33:20.580Z,5.76
2018-12-04T23:35:50.559Z,5.78
2018-12-04T23:38:20.294Z,5.77
2018-12-04T23:40:50.133Z,5.76
2018-12-04T23:43:20.080Z,5.82
2018-12-04T23:45:49.868Z,5.83
2018-12-04T23:48:19.868Z,5.78
2018-12-04T23:50:49.640Z,5.78
2018-12-04T23:53:19.313Z,5.81
2018-12-04T23:55:49.281Z,5.81
2018-12-04T23:58:19.139Z,5.85
